Time;durP1;ratioP1;P1;durP2;ratioP2;P2;SDS_P1;SDS_P2;PMS_P1;PMS_P2;Temp;Humidity;BMP_temperature;BMP_pressure;BME280_temperature;BME280_humidity;BME280_pressure;Samples;Min_cycle;Max_cycle;Signal;HPM_P1;HPM_P2
2022/12/14 00:01:49;;;;;;;30.98;19.98;;;22.10;34.10;;;;;;6127375;28;87476;-69
2022/12/14 00:04:50;;;;;;;36.47;21.92;;;22.10;34.10;;;;;;6127750;28;83351;-69
2022/12/14 00:07:50;;;;;;;35.33;21.50;;;22.10;34.10;;;;;;6126529;28;83501;-69
2022/12/14 00:10:51;;;;;;;33.25;21.10;;;22.10;34.10;;;;;;6143920;28;83820;-69
2022/12/14 00:13:52;;;;;;;34.78;21.02;;;22.00;34.10;;;;;;6149294;28;83507;-69
2022/12/14 00:16:53;;;;;;;36.97;22.80;;;22.00;34.10;;;;;;6139334;28;84644;-69
2022/12/14 00:19:53;;;;;;;36.70;21.40;;;22.00;34.20;;;;;;6126632;28;83635;-69
2022/12/14 00:22:54;;;;;;;36.25;22.02;;;22.00;34.20;;;;;;6127896;28;83594;-68
2022/12/14 00:25:54;;;;;;;37.22;22.02;;;22.00;34.20;;;;;;6127467;28;83424;-68
2022/12/14 00:28:55;;;;;;;36.45;22.83;;;22.00;34.30;;;;;;6117132;28;83143;-68
2022/12/14 00:31:55;;;;;;;38.15;21.83;;;22.00;34.50;;;;;;6132901;28;83154;-60
2022/12/14 00:34:56;;;;;;;37.72;22.67;;;22.00;34.40;;;;;;6124456;28;83555;-60
2022/12/14 00:37:56;;;;;;;38.85;22.60;;;22.00;34.40;;;;;;6125924;28;84009;-61
2022/12/14 00:40:57;;;;;;;34.60;22.58;;;22.00;34.40;;;;;;6134512;28;83487;-61
2022/12/14 00:43:57;;;;;;;38.03;23.17;;;22.00;34.40;;;;;;6124505;28;90634;-62
2022/12/14 00:46:58;;;;;;;37.63;22.70;;;22.00;34.40;;;;;;6123334;28;83215;-60
2022/12/14 00:49:58;;;;;;;36.20;21.80;;;22.00;34.40;;;;;;6125106;28;83459;-62
2022/12/14 00:52:59;;;;;;;35.78;21.98;;;22.00;34.50;;;;;;6124597;28;86578;-62
2022/12/14 00:55:59;;;;;;;36.00;22.60;;;22.00;34.40;;;;;;6124482;28;84671;-61
2022/12/14 00:59:00;;;;;;;38.28;22.73;;;22.00;34.40;;;;;;6132600;28;83463;-62
2022/12/14 01:02:01;;;;;;;36.03;21.20;;;21.90;34.30;;;;;;6136744;28;83319;-60
2022/12/14 01:05:01;;;;;;;38.25;22.17;;;21.90;34.30;;;;;;6136724;28;84498;-60
2022/12/14 01:08:02;;;;;;;37.08;22.60;;;21.90;34.50;;;;;;6122307;28;85394;-60
2022/12/14 01:11:02;;;;;;;36.28;21.63;;;21.90;34.20;;;;;;6135959;28;87916;-60
2022/12/14 01:14:03;;;;;;;34.42;21.10;;;21.90;34.10;;;;;;6136973;28;84061;-62
2022/12/14 01:17:03;;;;;;;37.45;22.08;;;21.90;34.20;;;;;;6147680;28;83101;-62
2022/12/14 01:20:04;;;;;;;36.65;23.27;;;21.90;34.30;;;;;;6148081;28;83451;-61
2022/12/14 01:23:04;;;;;;;38.08;22.90;;;21.90;34.10;;;;;;6147689;28;82922;-60
2022/12/14 01:26:05;;;;;;;36.30;21.70;;;21.90;34.00;;;;;;6146609;28;83596;-61
2022/12/14 01:29:06;;;;;;;36.60;22.33;;;21.90;34.10;;;;;;6148085;28;83567;-58
2022/12/14 01:32:06;;;;;;;34.38;20.98;;;21.80;34.00;;;;;;6149879;28;82768;-58
2022/12/14 01:35:07;;;;;;;34.00;21.83;;;21.80;33.90;;;;;;6147466;28;82712;-58
2022/12/14 01:38:08;;;;;;;33.80;21.00;;;21.80;33.70;;;;;;6141530;28;84024;-58
2022/12/14 01:41:08;;;;;;;38.97;21.52;;;21.80;33.60;;;;;;6138641;28;83582;-58
2022/12/14 01:44:09;;;;;;;39.38;22.70;;;21.80;33.80;;;;;;6124966;28;82873;-57
2022/12/14 01:47:09;;;;;;;36.97;21.75;;;21.80;33.90;;;;;;6125196;28;84427;-67
2022/12/14 01:50:10;;;;;;;37.80;22.48;;;21.70;33.70;;;;;;6125101;28;83031;-67
2022/12/14 01:53:10;;;;;;;41.75;23.30;;;21.70;33.80;;;;;;6143732;28;83326;-66
2022/12/14 01:56:11;;;;;;;40.83;23.73;;;21.70;33.70;;;;;;6140847;28;83777;-68
2022/12/14 01:59:12;;;;;;;36.50;22.35;;;21.70;33.50;;;;;;6147387;28;83033;-68
2022/12/14 02:02:12;;;;;;;40.97;23.67;;;21.70;33.70;;;;;;6148859;28;85479;-70
2022/12/14 02:05:13;;;;;;;37.72;23.15;;;21.70;33.50;;;;;;6148880;28;83977;-62
2022/12/14 02:08:14;;;;;;;38.92;23.75;;;21.70;33.40;;;;;;6132504;28;83249;-63
2022/12/14 02:11:14;;;;;;;41.35;24.75;;;21.70;33.30;;;;;;6130356;28;83424;-60
2022/12/14 02:14:14;;;;;;;39.42;24.23;;;21.70;33.30;;;;;;6123284;28;85566;-60
2022/12/14 02:17:15;;;;;;;38.65;24.30;;;21.70;33.40;;;;;;6121725;28;83190;-61
2022/12/14 02:20:16;;;;;;;36.95;22.63;;;21.70;33.20;;;;;;6123377;28;83108;-60
2022/12/14 02:23:16;;;;;;;43.40;25.63;;;21.70;33.20;;;;;;6121587;28;83477;-62
2022/12/14 02:26:18;;;;;;;40.47;23.67;;;21.70;33.90;;;;;;6133319;28;84796;-60
2022/12/14 02:29:18;;;;;;;42.55;24.48;;;21.70;33.20;;;;;;6124732;28;83751;-61
2022/12/14 02:32:19;;;;;;;42.30;25.73;;;21.70;33.20;;;;;;6131326;28;88061;-60
2022/12/14 02:35:19;;;;;;;40.60;23.42;;;21.70;33.20;;;;;;6136287;28;83264;-59
2022/12/14 02:38:20;;;;;;;41.20;25.52;;;21.60;33.00;;;;;;6139297;28;84164;-60
2022/12/14 02:41:20;;;;;;;41.13;24.73;;;21.60;33.00;;;;;;6127973;28;83317;-69
2022/12/14 02:44:21;;;;;;;42.05;24.65;;;21.70;33.10;;;;;;6143158;28;83771;-69
2022/12/14 02:47:21;;;;;;;45.20;25.95;;;21.60;32.90;;;;;;6146743;28;84107;-69
2022/12/14 02:50:22;;;;;;;40.72;24.88;;;21.60;32.80;;;;;;6147360;28;83237;-68
2022/12/14 02:53:22;;;;;;;44.55;25.85;;;21.60;32.70;;;;;;6133573;28;83344;-68
2022/12/14 02:56:23;;;;;;;40.38;25.23;;;21.60;32.80;;;;;;6125473;28;85519;-69
2022/12/14 02:59:23;;;;;;;42.35;24.70;;;21.60;32.70;;;;;;6129111;28;83326;-70
2022/12/14 03:02:24;;;;;;;43.85;25.23;;;21.60;32.80;;;;;;6140870;28;83360;-68
2022/12/14 03:05:25;;;;;;;42.60;25.65;;;21.60;32.70;;;;;;6127202;28;85329;-69
2022/12/14 03:08:25;;;;;;;42.25;25.15;;;21.60;32.60;;;;;;6126889;28;83216;-67
2022/12/14 03:11:26;;;;;;;41.67;24.45;;;21.60;32.50;;;;;;6134230;28;82763;-69
2022/12/14 03:14:27;;;;;;;43.28;25.13;;;21.60;33.20;;;;;;6135943;28;83071;-67
2022/12/14 03:17:28;;;;;;;40.88;23.70;;;21.60;32.60;;;;;;6124362;28;83148;-64
2022/12/14 03:20:28;;;;;;;40.60;24.38;;;21.60;33.60;;;;;;6123841;28;84367;-65
2022/12/14 03:23:29;;;;;;;43.40;25.20;;;21.60;33.00;;;;;;6126495;28;83561;-67
2022/12/14 03:26:29;;;;;;;44.47;25.70;;;21.60;33.30;;;;;;6137890;28;83393;-67
2022/12/14 03:29:30;;;;;;;41.67;24.80;;;21.60;33.20;;;;;;6128925;28;83454;-67
2022/12/14 03:32:30;;;;;;;40.45;24.33;;;21.60;33.20;;;;;;6125651;28;84198;-68
2022/12/14 03:35:31;;;;;;;40.08;24.38;;;21.60;33.10;;;;;;6136783;28;83591;-68
2022/12/14 03:38:31;;;;;;;42.13;25.25;;;21.60;33.10;;;;;;6126287;28;83312;-66
2022/12/14 03:41:32;;;;;;;40.42;25.17;;;21.60;33.10;;;;;;6123841;28;86576;-67
2022/12/14 03:44:32;;;;;;;42.60;24.75;;;21.70;33.20;;;;;;6146712;28;84184;-68
2022/12/14 03:47:33;;;;;;;40.47;24.17;;;21.70;33.30;;;;;;6143131;28;93805;-66
2022/12/14 03:50:33;;;;;;;38.78;23.02;;;21.60;33.20;;;;;;6164255;28;82911;-68
2022/12/14 03:53:34;;;;;;;43.70;24.52;;;21.70;33.10;;;;;;6147258;28;83469;-68
2022/12/14 03:56:34;;;;;;;43.08;24.80;;;21.60;33.10;;;;;;6139989;28;83433;-61
2022/12/14 04:21:51;;;;;;;38.15;22.35;;;21.70;32.90;;;;;;6132067;28;83249;-68
2022/12/14 04:29:54;;;;;;;37.83;22.33;;;21.90;32.10;;;;;;6108475;28;83164;-66
2022/12/14 04:31:31;;;;;;;38.47;24.02;;;22.00;31.80;;;;;;6119793;28;83395;-67
2022/12/14 04:34:32;;;;;;;40.10;24.35;;;22.00;31.40;;;;;;6123208;28;84034;-66
2022/12/14 04:37:32;;;;;;;39.78;23.58;;;22.10;31.20;;;;;;6112543;28;90195;-67
2022/12/14 04:40:33;;;;;;;43.50;24.63;;;22.20;31.00;;;;;;6098126;28;83140;-66
2022/12/14 04:43:33;;;;;;;40.83;24.15;;;22.20;30.90;;;;;;6105889;28;84357;-67
2022/12/14 04:46:34;;;;;;;40.85;25.15;;;22.30;30.70;;;;;;6109452;28;82971;-70
2022/12/14 04:49:34;;;;;;;37.47;23.80;;;22.30;30.90;;;;;;6107041;28;83746;-64
2022/12/14 04:52:35;;;;;;;35.85;23.13;;;22.40;30.90;;;;;;6105290;28;83183;-61
2022/12/14 04:55:35;;;;;;;36.97;22.42;;;22.40;30.50;;;;;;6102648;28;85266;-64
2022/12/14 04:58:36;;;;;;;40.58;23.52;;;22.40;31.30;;;;;;6110486;28;83204;-68
2022/12/14 05:01:36;;;;;;;38.78;23.40;;;22.40;30.70;;;;;;6108924;28;84116;-65
2022/12/14 05:04:37;;;;;;;41.60;24.45;;;22.40;30.60;;;;;;6115775;28;84032;-64
2022/12/14 05:07:37;;;;;;;48.00;24.63;;;22.40;30.40;;;;;;6107308;28;83409;-60
2022/12/14 05:10:38;;;;;;;38.03;23.73;;;22.40;30.30;;;;;;6106666;28;83013;-61
2022/12/14 05:13:39;;;;;;;43.70;22.02;;;22.50;30.00;;;;;;6126822;28;83604;-60
2022/12/14 05:16:39;;;;;;;39.63;23.08;;;22.50;30.10;;;;;;6106253;28;84605;-61
2022/12/14 05:19:40;;;;;;;36.13;22.65;;;22.50;30.00;;;;;;6102035;28;83682;-59
2022/12/14 05:22:40;;;;;;;36.40;22.23;;;22.50;30.20;;;;;;6112303;28;84108;-59
2022/12/14 05:25:41;;;;;;;33.47;20.50;;;22.60;30.30;;;;;;6121475;28;84031;-60
2022/12/14 05:28:41;;;;;;;32.40;21.80;;;22.50;30.00;;;;;;6119990;28;85283;-60
2022/12/14 05:31:42;;;;;;;34.83;22.40;;;22.60;30.00;;;;;;6119940;28;83289;-62
2022/12/14 05:34:42;;;;;;;31.48;21.35;;;22.60;30.00;;;;;;6111768;28;83025;-60
2022/12/14 05:37:43;;;;;;;34.53;21.35;;;22.60;30.00;;;;;;6127804;28;87203;-63
2022/12/14 05:40:43;;;;;;;37.20;22.17;;;22.60;30.30;;;;;;6121179;28;82908;-60
2022/12/14 05:43:44;;;;;;;37.92;21.67;;;22.70;30.40;;;;;;6123002;28;90957;-60
2022/12/14 05:46:44;;;;;;;37.10;21.88;;;22.70;30.40;;;;;;6114371;28;82832;-62
2022/12/14 05:49:45;;;;;;;35.00;19.88;;;22.70;30.70;;;;;;6117754;28;83931;-65
2022/12/14 05:52:45;;;;;;;26.25;16.98;;;22.70;30.50;;;;;;6115960;28;83605;-61
2022/12/14 05:55:46;;;;;;;26.83;15.38;;;22.70;30.80;;;;;;6093284;28;85550;-61
2022/12/14 05:58:46;;;;;;;26.13;15.20;;;22.70;31.20;;;;;;6113427;28;83091;-61
2022/12/14 06:01:47;;;;;;;22.65;14.50;;;22.70;31.60;;;;;;6111149;28;83629;-65
2022/12/14 06:04:47;;;;;;;23.77;14.15;;;22.70;32.20;;;;;;6117500;28;87865;-63
2022/12/14 06:07:48;;;;;;;27.13;13.95;;;22.70;33.00;;;;;;6121617;28;84116;-61
2022/12/14 06:10:48;;;;;;;21.92;13.38;;;22.70;33.80;;;;;;6095675;28;84413;-59
2022/12/14 06:13:49;;;;;;;21.25;12.93;;;22.60;34.80;;;;;;6097898;28;84484;-59
2022/12/14 06:16:49;;;;;;;19.48;12.25;;;22.50;35.70;;;;;;6096569;28;83966;-61
2022/12/14 06:19:50;;;;;;;21.17;13.55;;;22.50;37.00;;;;;;6079325;28;83500;-64
2022/12/14 06:22:51;;;;;;;19.13;12.35;;;22.50;36.40;;;;;;6108353;28;84871;-64
2022/12/14 06:25:51;;;;;;;25.02;12.52;;;22.50;37.10;;;;;;6112036;28;83627;-60
2022/12/14 06:28:52;;;;;;;22.00;14.55;;;22.50;37.30;;;;;;6093022;28;84812;-60
2022/12/14 06:31:52;;;;;;;23.65;13.30;;;22.40;36.80;;;;;;6098088;28;85328;-62
2022/12/14 06:34:53;;;;;;;21.35;13.00;;;22.30;37.40;;;;;;6112984;28;82898;-60
2022/12/14 06:37:53;;;;;;;25.25;13.35;;;22.30;37.80;;;;;;6114869;28;83965;-62
2022/12/14 06:40:54;;;;;;;20.75;12.80;;;22.20;38.00;;;;;;6112843;28;86165;-60
2022/12/14 06:43:55;;;;;;;20.48;12.98;;;22.20;38.40;;;;;;6107749;28;83219;-60
2022/12/14 06:46:56;;;;;;;20.42;13.05;;;22.10;38.40;;;;;;6086467;28;84234;-62
2022/12/14 06:49:56;;;;;;;19.10;13.20;;;22.10;38.40;;;;;;6120352;28;83633;-61
2022/12/14 06:52:57;;;;;;;23.60;13.82;;;22.00;38.40;;;;;;6115434;28;83160;-61
2022/12/14 06:55:57;;;;;;;24.67;14.48;;;22.00;38.40;;;;;;6101553;28;90729;-61
2022/12/14 06:58:58;;;;;;;23.90;15.13;;;22.00;38.40;;;;;;6112781;28;84416;-61
2022/12/14 07:01:58;;;;;;;28.05;16.25;;;21.90;38.70;;;;;;6120021;28;83527;-62
2022/12/14 07:04:59;;;;;;;25.58;14.90;;;22.00;39.40;;;;;;6107411;28;84757;-59
2022/12/14 07:07:59;;;;;;;24.75;15.85;;;22.00;39.50;;;;;;6105019;28;83375;-63
2022/12/14 07:11:00;;;;;;;25.02;16.50;;;21.90;39.70;;;;;;6103010;28;83267;-61
2022/12/14 07:14:04;;;;;;;25.15;15.77;;;21.90;39.60;;;;;;6092711;28;84820;-62
2022/12/14 07:17:05;;;;;;;24.08;15.70;;;21.90;39.40;;;;;;6112284;28;84600;-61
2022/12/14 07:20:05;;;;;;;26.23;16.33;;;21.80;39.60;;;;;;6132093;28;83279;-62
2022/12/14 07:23:06;;;;;;;25.08;16.65;;;21.80;39.40;;;;;;6125552;28;83273;-66
2022/12/14 07:26:07;;;;;;;27.63;17.58;;;21.80;39.60;;;;;;6116963;28;83455;-65
2022/12/14 07:29:10;;;;;;;30.23;16.48;;;21.80;39.30;;;;;;6101634;28;82983;-64
2022/12/14 07:32:10;;;;;;;30.40;17.45;;;21.80;40.20;;;;;;6113082;28;83523;-64
2022/12/14 07:35:11;;;;;;;28.45;16.40;;;21.80;39.60;;;;;;6103626;28;86483;-63
2022/12/14 07:38:11;;;;;;;29.15;17.83;;;21.70;40.30;;;;;;6100848;28;84953;-68
2022/12/14 07:41:12;;;;;;;30.30;18.15;;;21.80;39.60;;;;;;6106391;28;85339;-69
2022/12/14 07:44:13;;;;;;;29.35;18.60;;;21.80;39.70;;;;;;6110123;28;83740;-67
2022/12/14 07:47:13;;;;;;;30.10;17.80;;;21.80;39.80;;;;;;6112526;28;83268;-67
2022/12/14 07:50:14;;;;;;;29.95;18.00;;;21.80;39.60;;;;;;6106822;28;84400;-65
2022/12/14 07:53:14;;;;;;;30.48;18.23;;;21.80;39.80;;;;;;6084966;28;84131;-63
2022/12/14 07:56:15;;;;;;;26.88;17.58;;;21.80;39.60;;;;;;6103159;28;86776;-62
2022/12/14 07:59:15;;;;;;;24.63;17.15;;;21.70;39.80;;;;;;6094064;28;84754;-61
2022/12/14 08:02:16;;;;;;;28.10;16.90;;;21.70;39.60;;;;;;6103366;28;83824;-61
2022/12/14 08:05:16;;;;;;;28.60;17.50;;;21.70;39.70;;;;;;6109862;28;84412;-63
2022/12/14 08:08:17;;;;;;;27.85;18.17;;;21.70;39.80;;;;;;6109342;28;82920;-61
2022/12/14 08:11:17;;;;;;;28.92;18.15;;;21.70;39.70;;;;;;6116364;28;90301;-67
2022/12/14 08:14:18;;;;;;;29.50;19.15;;;21.70;39.90;;;;;;6105454;28;83374;-69
2022/12/14 08:17:19;;;;;;;29.38;18.15;;;21.70;39.50;;;;;;6119348;28;83560;-69
2022/12/14 08:20:19;;;;;;;29.25;17.65;;;21.70;39.80;;;;;;6124567;28;83962;-74
2022/12/14 08:23:20;;;;;;;26.10;16.90;;;21.70;39.70;;;;;;6125179;28;83079;-62
2022/12/14 08:26:20;;;;;;;28.17;17.60;;;21.70;39.80;;;;;;6137017;28;83229;-74
2022/12/14 08:29:21;;;;;;;26.38;16.80;;;21.70;39.90;;;;;;6149426;28;83015;-69
2022/12/14 08:32:21;;;;;;;25.75;16.75;;;21.70;39.80;;;;;;6147645;28;84259;-71
2022/12/14 08:35:22;;;;;;;31.35;16.20;;;21.80;40.10;;;;;;6149844;28;83461;-70
2022/12/14 08:38:22;;;;;;;25.05;16.88;;;21.80;40.00;;;;;;6148215;28;85020;-70
2022/12/14 08:41:23;;;;;;;24.23;16.17;;;21.90;40.00;;;;;;6143629;28;82994;-70
2022/12/14 08:44:26;;;;;;;28.05;17.13;;;21.90;39.80;;;;;;6140502;28;84401;-68
2022/12/14 08:47:27;;;;;;;27.35;16.80;;;22.00;40.00;;;;;;6147269;28;83946;-63
2022/12/14 08:50:28;;;;;;;22.77;15.63;;;22.00;39.80;;;;;;6148543;28;85390;-66
2022/12/14 08:53:28;;;;;;;25.27;16.75;;;22.10;40.10;;;;;;6147560;28;83301;-70
2022/12/14 08:56:29;;;;;;;26.98;16.77;;;22.10;39.90;;;;;;6149094;28;82894;-65
2022/12/14 08:59:30;;;;;;;26.45;15.32;;;22.10;40.00;;;;;;6148253;28;84217;-65
2022/12/14 09:02:31;;;;;;;25.58;16.55;;;22.20;40.00;;;;;;6134226;28;84432;-65
2022/12/14 09:05:31;;;;;;;27.30;16.33;;;22.20;40.30;;;;;;6129381;28;83299;-65
2022/12/14 09:08:32;;;;;;;28.02;16.73;;;22.30;40.50;;;;;;6133242;28;84485;-56
2022/12/14 09:11:32;;;;;;;23.95;15.98;;;22.40;40.50;;;;;;6127561;28;88403;-54
2022/12/14 09:14:33;;;;;;;23.60;16.02;;;22.40;40.20;;;;;;6126923;28;84109;-56
2022/12/14 09:17:33;;;;;;;23.73;15.93;;;22.40;40.00;;;;;;6125167;28;84615;-56
2022/12/14 09:20:34;;;;;;;22.13;15.73;;;22.40;40.10;;;;;;6139762;28;85376;-63
2022/12/14 09:23:34;;;;;;;24.15;15.35;;;22.50;40.00;;;;;;6147696;28;84509;-61
2022/12/14 09:26:35;;;;;;;42.35;28.52;;;22.50;39.90;;;;;;6146782;28;84032;-70
2022/12/14 09:29:35;;;;;;;55.88;37.88;;;22.20;34.90;;;;;;6146130;28;83167;-66
2022/12/14 09:32:36;;;;;;;61.90;41.63;;;21.40;30.00;;;;;;6142664;28;85992;-66
2022/12/14 09:35:36;;;;;;;53.70;34.90;;;20.30;28.90;;;;;;6149039;28;83533;-77
2022/12/14 09:38:38;;;;;;;49.03;29.75;;;20.50;32.80;;;;;;6142969;28;83200;-70
2022/12/14 09:41:38;;;;;;;44.05;29.05;;;20.80;33.80;;;;;;6144925;28;83145;-69
2022/12/14 09:44:39;;;;;;;71.70;41.63;;;21.00;35.20;;;;;;6146524;28;82930;-65
2022/12/14 09:47:40;;;;;;;88.20;52.60;;;21.20;36.60;;;;;;6103229;28;83042;-65
2022/12/14 09:50:41;;;;;;;117.85;67.18;;;21.30;37.20;;;;;;6147582;28;87339;-63
2022/12/14 09:53:41;;;;;;;122.57;71.30;;;21.40;37.70;;;;;;6147773;28;84475;-63
2022/12/14 09:56:42;;;;;;;124.13;76.50;;;21.50;38.20;;;;;;6146637;28;85112;-61
2022/12/14 09:59:43;;;;;;;144.57;87.10;;;21.50;38.70;;;;;;6146171;28;83135;-63
2022/12/14 10:02:43;;;;;;;163.38;96.20;;;21.60;39.10;;;;;;6151931;28;84329;-69
2022/12/14 10:05:44;;;;;;;179.55;101.88;;;21.60;39.30;;;;;;6139842;28;82963;-67
2022/12/14 10:08:44;;;;;;;140.95;85.10;;;21.60;39.70;;;;;;6129233;28;92125;-67
2022/12/14 10:11:45;;;;;;;134.38;77.72;;;21.70;39.60;;;;;;6148933;28;85555;-67
2022/12/14 10:14:46;;;;;;;151.15;83.85;;;21.70;39.80;;;;;;6149977;28;83303;-65
2022/12/14 10:17:46;;;;;;;164.38;92.47;;;21.70;40.10;;;;;;6150175;28;84148;-67
2022/12/14 10:20:47;;;;;;;168.02;94.57;;;21.70;40.30;;;;;;6150801;28;84801;-67
2022/12/14 10:23:47;;;;;;;187.27;99.90;;;21.80;40.60;;;;;;6146650;28;84534;-70
2022/12/14 10:26:48;;;;;;;198.85;106.65;;;21.70;40.60;;;;;;6149498;28;83198;-67
2022/12/14 10:29:48;;;;;;;193.10;109.15;;;21.70;40.90;;;;;;6143999;28;86218;-68
2022/12/14 10:32:51;;;;;;;202.35;109.07;;;21.80;41.00;;;;;;6146598;28;85897;-67
2022/12/14 10:35:51;;;;;;;185.38;100.10;;;21.80;41.00;;;;;;6145896;28;86621;-67
2022/12/14 10:38:52;;;;;;;134.45;76.38;;;21.80;40.90;;;;;;6144177;28;85682;-64
2022/12/14 10:41:52;;;;;;;113.50;62.60;;;21.70;40.50;;;;;;6145957;28;85539;-64
2022/12/14 10:44:53;;;;;;;92.18;53.15;;;21.70;40.40;;;;;;6142344;28;83087;-66
2022/12/14 10:47:53;;;;;;;82.28;44.40;;;21.70;40.60;;;;;;6146765;28;83307;-61
2022/12/14 10:50:54;;;;;;;64.80;37.20;;;21.70;40.70;;;;;;6147556;28;83284;-63
2022/12/14 10:53:54;;;;;;;57.70;34.50;;;21.70;40.90;;;;;;6143217;28;83832;-63
2022/12/14 10:56:55;;;;;;;47.28;29.55;;;21.70;40.90;;;;;;6145284;28;84195;-66
2022/12/14 10:59:55;;;;;;;44.13;28.05;;;21.70;41.30;;;;;;6116662;28;83299;-65
2022/12/14 11:02:56;;;;;;;46.97;26.15;;;21.70;41.00;;;;;;6111953;28;83161;-65
2022/12/14 11:05:56;;;;;;;38.80;23.55;;;21.80;40.70;;;;;;6130012;28;84594;-66
2022/12/14 11:08:57;;;;;;;35.83;21.85;;;21.80;40.60;;;;;;6130587;28;86382;-66
2022/12/14 11:11:58;;;;;;;33.60;20.77;;;21.90;40.40;;;;;;6121642;28;88927;-67
2022/12/14 11:14:58;;;;;;;33.38;19.88;;;21.90;40.40;;;;;;6136927;28;86065;-66
2022/12/14 11:17:59;;;;;;;34.17;20.70;;;21.90;40.50;;;;;;6123585;28;85772;-65
2022/12/14 11:21:00;;;;;;;29.58;19.20;;;22.00;40.60;;;;;;6131835;28;84966;-65
2022/12/14 11:24:01;;;;;;;28.80;19.65;;;22.00;40.70;;;;;;6134394;28;85423;-67
2022/12/14 11:27:02;;;;;;;35.03;21.17;;;22.10;41.10;;;;;;6134196;28;88484;-66
2022/12/14 11:30:02;;;;;;;30.67;20.20;;;22.10;41.60;;;;;;6131005;28;87909;-64
2022/12/14 11:33:03;;;;;;;29.52;18.48;;;22.10;41.50;;;;;;6130226;28;87635;-62
2022/12/14 11:36:03;;;;;;;27.35;16.92;;;22.20;41.70;;;;;;6131403;28;83089;-63
2022/12/14 11:39:04;;;;;;;29.88;18.40;;;22.20;41.90;;;;;;6121507;28;84540;-63
2022/12/14 11:42:05;;;;;;;29.58;17.83;;;22.20;42.00;;;;;;6128080;28;84614;-60
2022/12/14 11:45:06;;;;;;;27.52;17.55;;;22.20;42.00;;;;;;6129148;28;87003;-66
2022/12/14 11:48:06;;;;;;;24.67;16.88;;;22.30;41.90;;;;;;6116679;28;85733;-64
2022/12/14 11:51:07;;;;;;;26.30;16.95;;;22.30;41.90;;;;;;6128470;28;83361;-62
2022/12/14 11:54:07;;;;;;;27.17;17.23;;;22.20;41.90;;;;;;6135414;28;82890;-63
2022/12/14 11:57:08;;;;;;;27.50;16.75;;;22.20;42.00;;;;;;6134993;28;83293;-63
2022/12/14 12:00:08;;;;;;;24.88;15.43;;;22.20;42.00;;;;;;6128327;28;87291;-62
2022/12/14 12:03:09;;;;;;;25.55;16.20;;;22.30;41.90;;;;;;6129498;28;84683;-65
2022/12/14 12:06:09;;;;;;;24.10;15.90;;;22.30;41.90;;;;;;6127876;28;85977;-61
2022/12/14 12:09:10;;;;;;;24.45;14.20;;;22.30;41.50;;;;;;6134468;28;83839;-61
2022/12/14 12:12:10;;;;;;;25.13;14.98;;;22.30;41.80;;;;;;6138821;28;83013;-63
2022/12/14 12:15:11;;;;;;;28.67;16.25;;;22.40;41.70;;;;;;6143463;28;83352;-67
2022/12/14 12:18:12;;;;;;;23.00;14.85;;;22.40;41.70;;;;;;6136801;28;84142;-67
2022/12/14 12:21:12;;;;;;;24.88;15.48;;;22.40;41.70;;;;;;6136045;28;83216;-66
2022/12/14 12:24:13;;;;;;;22.63;15.40;;;22.40;41.70;;;;;;6139304;28;83583;-67
2022/12/14 12:27:13;;;;;;;24.70;16.15;;;22.40;41.50;;;;;;6139190;28;83987;-67
2022/12/14 12:30:16;;;;;;;27.65;16.10;;;22.40;41.80;;;;;;6133130;28;83679;-57
2022/12/14 12:33:16;;;;;;;24.33;15.80;;;22.40;41.50;;;;;;6135246;28;83483;-56
2022/12/14 12:36:17;;;;;;;25.33;15.90;;;22.40;41.10;;;;;;6133827;28;83247;-58
2022/12/14 12:39:17;;;;;;;23.27;14.93;;;22.30;41.40;;;;;;6128971;28;84731;-54
2022/12/14 12:42:18;;;;;;;23.10;15.05;;;22.30;41.40;;;;;;6134363;28;86056;-58
2022/12/14 12:45:18;;;;;;;23.48;16.10;;;22.30;41.60;;;;;;6140927;28;82992;-56
2022/12/14 12:48:19;;;;;;;22.92;15.38;;;22.20;41.20;;;;;;6127337;28;83714;-66
2022/12/14 12:51:20;;;;;;;24.20;15.43;;;22.20;41.70;;;;;;6124678;28;86135;-69
2022/12/14 12:54:20;;;;;;;20.58;14.23;;;22.10;41.90;;;;;;6135701;28;83581;-66
2022/12/14 12:57:21;;;;;;;22.30;14.57;;;22.10;42.00;;;;;;6140942;28;84602;-68
2022/12/14 13:00:23;;;;;;;20.90;14.20;;;22.10;42.00;;;;;;6128030;28;83217;-69
2022/12/14 13:03:24;;;;;;;24.52;15.15;;;22.10;42.10;;;;;;6119495;28;83198;-66
2022/12/14 13:06:25;;;;;;;22.48;14.43;;;22.10;41.90;;;;;;6121951;28;83759;-67
2022/12/14 13:09:25;;;;;;;23.55;14.75;;;22.00;41.90;;;;;;6125068;28;84369;-68
2022/12/14 13:12:26;;;;;;;24.25;14.98;;;22.00;41.90;;;;;;6132025;28;83391;-79
2022/12/14 13:15:26;;;;;;;21.98;13.85;;;22.00;41.70;;;;;;6128778;28;86038;-69
2022/12/14 13:18:27;;;;;;;21.15;14.25;;;21.90;41.90;;;;;;6132276;28;83143;-71
2022/12/14 13:21:27;;;;;;;22.90;14.60;;;21.90;41.70;;;;;;6136667;28;85371;-67
2022/12/14 13:24:28;;;;;;;26.35;16.13;;;21.90;41.90;;;;;;6143371;28;83129;-68
2022/12/14 13:27:28;;;;;;;24.52;15.38;;;21.90;41.50;;;;;;6129934;28;83476;-70
2022/12/14 13:30:29;;;;;;;23.27;14.25;;;21.80;41.70;;;;;;6135665;28;83322;-68
2022/12/14 13:33:29;;;;;;;22.40;14.60;;;21.80;41.50;;;;;;6139858;28;83395;-69
2022/12/14 13:36:30;;;;;;;23.05;14.30;;;21.80;41.80;;;;;;6139900;28;83462;-68
2022/12/14 13:39:30;;;;;;;21.15;14.57;;;21.80;41.80;;;;;;6137430;28;87064;-67
2022/12/14 13:42:31;;;;;;;23.25;14.27;;;21.80;41.80;;;;;;6119791;28;85598;-64
2022/12/14 13:45:31;;;;;;;20.80;13.80;;;21.70;41.80;;;;;;6115255;28;87860;-63
2022/12/14 13:48:32;;;;;;;19.73;12.98;;;21.70;41.70;;;;;;6125179;28;83153;-63
2022/12/14 13:51:32;;;;;;;18.95;12.75;;;21.70;41.80;;;;;;6124647;28;83196;-61
2022/12/14 13:54:33;;;;;;;22.10;14.80;;;21.70;41.70;;;;;;6126104;28;84555;-63
2022/12/14 13:57:33;;;;;;;22.50;14.70;;;21.70;41.50;;;;;;6123942;28;85071;-61
2022/12/14 14:00:34;;;;;;;23.63;14.65;;;21.70;41.50;;;;;;6123945;28;84924;-61
2022/12/14 14:03:34;;;;;;;25.17;14.48;;;21.70;41.20;;;;;;6128098;28;87350;-63
2022/12/14 14:06:35;;;;;;;23.52;15.15;;;21.70;40.80;;;;;;6132432;28;85007;-63
2022/12/14 14:09:35;;;;;;;24.13;15.93;;;21.70;40.00;;;;;;6124607;28;85410;-63
2022/12/14 14:12:36;;;;;;;24.85;15.70;;;21.70;39.50;;;;;;6126912;28;83210;-62
2022/12/14 14:15:36;;;;;;;24.08;16.00;;;21.70;39.70;;;;;;6129763;28;84049;-62
2022/12/14 14:18:37;;;;;;;23.83;15.32;;;21.70;38.10;;;;;;6139268;28;83268;-61
2022/12/14 14:21:38;;;;;;;23.60;15.73;;;21.80;38.00;;;;;;6140038;28;83335;-60
2022/12/14 14:24:38;;;;;;;25.33;16.35;;;21.80;37.10;;;;;;6136771;28;83390;-62
2022/12/14 14:27:40;;;;;;;23.05;14.73;;;21.90;36.80;;;;;;6128626;28;86549;-63
2022/12/14 14:30:41;;;;;;;24.60;17.27;;;21.90;36.90;;;;;;6119260;28;85651;-66
2022/12/14 14:33:41;;;;;;;24.90;16.45;;;21.90;37.40;;;;;;6126707;28;83121;-63
2022/12/14 14:36:42;;;;;;;26.50;16.67;;;21.90;38.40;;;;;;6136784;28;86297;-66
2022/12/14 14:39:42;;;;;;;26.35;16.60;;;22.00;39.20;;;;;;6128754;28;83581;-70
2022/12/14 14:42:43;;;;;;;24.45;16.85;;;22.00;39.60;;;;;;6126394;28;89076;-63
2022/12/14 14:45:43;;;;;;;23.40;15.90;;;22.00;40.10;;;;;;6134759;28;83152;-65
2022/12/14 14:48:44;;;;;;;24.75;16.15;;;22.10;40.20;;;;;;6115370;28;85455;-66
2022/12/14 14:51:44;;;;;;;29.95;17.42;;;22.10;40.30;;;;;;6120848;28;83242;-64
2022/12/14 14:54:45;;;;;;;26.63;16.63;;;22.10;40.40;;;;;;6132122;28;84719;-63
2022/12/14 14:57:45;;;;;;;24.45;16.38;;;22.10;40.30;;;;;;6125081;28;87220;-64
2022/12/14 15:00:45;;;;;;;24.38;16.48;;;22.10;40.20;;;;;;6119513;28;89767;-62
2022/12/14 15:03:46;;;;;;;27.85;17.67;;;22.10;40.50;;;;;;6118921;28;86240;-65
2022/12/14 15:06:46;;;;;;;25.75;17.25;;;22.10;40.20;;;;;;6123375;28;90394;-63
2022/12/14 15:09:47;;;;;;;26.00;16.35;;;22.20;40.60;;;;;;6121444;28;85543;-63
2022/12/14 15:12:47;;;;;;;26.60;17.00;;;22.20;40.60;;;;;;6118515;28;95008;-66
2022/12/14 15:15:48;;;;;;;25.60;15.85;;;22.30;40.90;;;;;;6122484;28;83240;-70
2022/12/14 15:18:49;;;;;;;24.67;16.75;;;22.30;40.80;;;;;;6110332;28;86991;-69
2022/12/14 15:21:49;;;;;;;27.27;15.93;;;22.30;40.70;;;;;;6111510;28;90243;-65
2022/12/14 15:24:50;;;;;;;26.75;17.35;;;22.30;40.80;;;;;;6118081;28;84947;-62
2022/12/14 15:27:50;;;;;;;27.83;16.45;;;22.40;40.90;;;;;;6121310;28;89838;-66
2022/12/14 15:30:53;;;;;;;30.25;16.33;;;22.30;40.90;;;;;;6122276;28;86009;-64
2022/12/14 15:33:54;;;;;;;25.48;15.90;;;22.40;41.20;;;;;;6126723;28;84119;-65
2022/12/14 15:36:54;;;;;;;25.30;15.32;;;22.40;40.70;;;;;;6130534;28;84932;-63
2022/12/14 15:39:55;;;;;;;24.73;16.42;;;22.30;41.50;;;;;;6130598;28;84190;-65